createdAt,value
2023-05-06T00:00:01.228Z,101.6
2023-05-06T00:05:01.260Z,103.2
2023-05-06T00:10:01.341Z,97.1
2023-05-06T00:15:01.206Z,93.0
2023-05-06T00:20:01.403Z,87.9
2023-05-06T00:30:02.141Z,88.0
2023-05-06T00:40:01.281Z,86.6
2023-05-06T00:45:06.292Z,89.3
2023-05-06T00:50:01.137Z,87.0
2023-05-06T00:55:01.251Z,87.9
2023-05-06T01:00:01.221Z,85.8
2023-05-06T01:05:01.305Z,85.6
2023-05-06T01:10:01.145Z,83.6
2023-05-06T01:20:01.400Z,82.6
2023-05-06T01:25:01.206Z,78.7
2023-05-06T01:30:01.230Z,78.8
2023-05-06T01:35:01.228Z,79.9
2023-05-06T01:40:01.300Z,82.5
2023-05-06T01:45:01.311Z,84.8
2023-05-06T01:50:01.159Z,91.2
2023-05-06T01:55:01.245Z,91.8
2023-05-06T02:00:01.268Z,92.4
2023-05-06T02:15:01.184Z,90.0
2023-05-06T02:20:01.301Z,90.5
2023-05-06T02:25:01.194Z,90.1
2023-05-06T02:30:01.149Z,88.6
2023-05-06T02:35:01.133Z,87.8
2023-05-06T02:40:01.212Z,87.3
2023-05-06T02:45:01.178Z,84.7
2023-05-06T02:50:01.144Z,84.0
2023-05-06T02:55:01.284Z,81.9
2023-05-06T03:05:01.285Z,75.8
2023-05-06T03:10:01.142Z,77.6
2023-05-06T03:15:01.248Z,77.9
2023-05-06T03:20:01.122Z,77.7
2023-05-06T03:25:01.277Z,78.9
2023-05-06T03:30:01.137Z,83.6
2023-05-06T03:35:01.186Z,84.4
2023-05-06T03:40:01.173Z,84.0
2023-05-06T03:45:01.344Z,74.8
2023-05-06T03:50:01.192Z,75.2
2023-05-06T04:00:01.236Z,75.1
2023-05-06T04:05:01.427Z,73.4
2023-05-06T04:10:01.122Z,74.7
2023-05-06T04:15:01.240Z,80.8
2023-05-06T04:20:01.111Z,78.3
2023-05-06T04:25:01.338Z,79.5
2023-05-06T04:30:01.515Z,81.8
2023-05-06T04:35:01.207Z,82.4
2023-05-06T04:40:01.131Z,85.4
2023-05-06T04:45:01.898Z,88.3
2023-05-06T04:55:01.277Z,79.8
2023-05-06T05:00:01.143Z,79.0
2023-05-06T05:05:01.208Z,81.4
2023-05-06T05:10:01.139Z,82.9
2023-05-06T05:15:01.181Z,84.4
2023-05-06T05:20:01.195Z,109.7
2023-05-06T05:25:01.349Z,111.5
2023-05-06T05:30:01.151Z,119.1
2023-05-06T05:35:01.182Z,128.6
2023-05-06T05:40:01.113Z,113.0
2023-05-06T05:45:01.607Z,112.4
2023-05-06T05:50:01.119Z,131.4
2023-05-06T05:55:01.254Z,154.6
2023-05-06T06:00:01.138Z,173.5
2023-05-06T06:05:01.721Z,214.7
2023-05-06T06:10:01.116Z,236.4
2023-05-06T06:15:01.184Z,240.6
2023-05-06T06:20:01.116Z,228.7
2023-05-06T06:30:01.277Z,219.5
2023-05-06T06:35:01.179Z,212.4
2023-05-06T06:40:01.134Z,192.2
2023-05-06T06:45:01.190Z,183.3
2023-05-06T06:50:01.231Z,186.1
2023-05-06T06:55:01.175Z,190.3
2023-05-06T07:00:01.122Z,195.4
2023-05-06T07:05:01.372Z,200.8
2023-05-06T07:10:01.259Z,199.9
2023-05-06T07:15:01.257Z,189.4
2023-05-06T07:25:01.180Z,181.4
2023-05-06T07:30:01.264Z,173.8
2023-05-06T07:35:01.178Z,156.4
2023-05-06T07:40:01.129Z,154.2
2023-05-06T07:45:01.249Z,159.6
2023-05-06T07:50:02.264Z,153.9
2023-05-06T07:55:01.278Z,151.0
2023-05-06T08:00:01.454Z,159.7
2023-05-06T08:05:01.181Z,156.1
2023-05-06T08:10:06.221Z,148.6
2023-05-06T08:15:01.254Z,144.6
2023-05-06T08:25:01.213Z,137.8
2023-05-06T08:30:01.672Z,131.8
2023-05-06T08:35:01.256Z,131.9
2023-05-06T08:40:01.171Z,131.0
2023-05-06T08:45:01.226Z,133.0
2023-05-06T08:50:01.278Z,137.1
2023-05-06T08:55:01.406Z,139.1
2023-05-06T09:00:01.173Z,143.0
2023-05-06T09:05:01.200Z,137.6
2023-05-06T09:10:01.180Z,146.1
2023-05-06T09:30:01.697Z,182.2
2023-05-06T09:35:01.634Z,174.0
2023-05-06T09:40:01.496Z,176.1
2023-05-06T09:45:02.679Z,173.8
2023-05-06T09:50:01.588Z,170.7
2023-05-06T09:55:01.567Z,163.1
2023-05-06T10:00:01.490Z,166.7
2023-05-06T10:05:01.841Z,168.1
2023-05-06T10:10:01.508Z,170.8
2023-05-06T10:15:01.609Z,179.9
2023-05-06T10:20:02.584Z,185.6
2023-05-06T10:25:01.548Z,184.2
2023-05-06T10:30:01.631Z,176.7
2023-05-06T10:35:02.564Z,166.6
2023-05-06T10:40:01.467Z,148.1
2023-05-06T10:45:01.530Z,135.2
2023-05-06T10:50:01.484Z,125.8
2023-05-06T11:10:01.769Z,108.4
2023-05-06T11:15:01.529Z,101.4
2023-05-06T11:30:01.104Z,88.6
2023-05-06T11:35:00.930Z,88.4
2023-05-06T11:45:00.996Z,92.0
2023-05-06T11:50:01.153Z,93.4
2023-05-06T11:55:00.938Z,96.8
2023-05-06T12:00:00.828Z,100.5
2023-05-06T12:05:00.926Z,100.3
2023-05-06T12:10:00.953Z,99.0
2023-05-06T12:15:00.953Z,98.7
2023-05-06T12:20:00.838Z,96.2
2023-05-06T12:25:00.920Z,94.7
2023-05-06T12:30:00.922Z,96.6
2023-05-06T12:35:00.921Z,97.5
2023-05-06T12:40:00.843Z,96.8
2023-05-06T12:45:00.985Z,95.9
2023-05-06T12:50:01.124Z,96.4
2023-05-06T12:55:05.881Z,100.2
2023-05-06T13:00:00.846Z,110.0
2023-05-06T13:05:00.929Z,119.2
2023-05-06T13:10:00.854Z,129.8
2023-05-06T13:15:05.901Z,134.5
2023-05-06T13:20:01.228Z,143.2
2023-05-06T13:25:00.806Z,142.4
2023-05-06T13:30:00.908Z,153.8
2023-05-06T13:35:00.930Z,165.1
2023-05-06T13:40:00.802Z,189.1
2023-05-06T13:45:00.880Z,198.4
2023-05-06T13:55:00.919Z,179.7
2023-05-06T14:00:00.956Z,162.0
2023-05-06T14:05:00.962Z,141.9
2023-05-06T14:10:00.808Z,125.2
2023-05-06T14:15:00.965Z,115.3
2023-05-06T14:20:00.812Z,113.3
2023-05-06T14:25:00.961Z,135.3
2023-05-06T14:30:00.836Z,130.6
2023-05-06T14:35:01.528Z,129.1
2023-05-06T14:40:00.858Z,131.3
2023-05-06T14:45:01.272Z,133.8
2023-05-06T14:50:00.903Z,108.6
2023-05-06T14:55:00.996Z,103.8
2023-05-06T15:00:00.875Z,99.6
2023-05-06T15:05:03.075Z,97.1
2023-05-06T15:10:00.886Z,95.2
2023-05-06T15:15:01.035Z,96.6
2023-05-06T15:20:00.898Z,97.2
2023-05-06T15:25:00.884Z,98.4
2023-05-06T15:30:00.843Z,100.0
2023-05-06T15:35:00.912Z,100.9
2023-05-06T15:40:00.857Z,100.0
2023-05-06T15:45:01.920Z,100.0
2023-05-06T15:55:01.058Z,99.3
2023-05-06T16:00:00.825Z,98.9
2023-05-06T16:05:00.928Z,99.8
2023-05-06T16:10:05.932Z,97.4
2023-05-06T16:15:00.880Z,95.6
2023-05-06T16:20:00.819Z,95.0
2023-05-06T16:25:01.460Z,94.1
2023-05-06T16:30:00.982Z,92.1
2023-05-06T16:35:00.898Z,92.2
2023-05-06T16:40:00.857Z,94.2
2023-05-06T16:45:00.886Z,92.7
2023-05-06T16:50:00.917Z,93.4
2023-05-06T16:55:00.941Z,93.9
2023-05-06T17:00:00.825Z,95.8
2023-05-06T17:05:00.908Z,96.3
2023-05-06T17:10:00.837Z,97.9
2023-05-06T17:15:00.884Z,99.8
2023-05-06T17:20:00.819Z,100.2
2023-05-06T17:25:00.968Z,99.2
2023-05-06T17:30:00.911Z,99.5
2023-05-06T17:35:00.948Z,104.4
2023-05-06T17:40:00.941Z,104.2
2023-05-06T17:45:00.882Z,107.6
2023-05-06T17:50:00.909Z,106.0
2023-05-06T17:55:11.141Z,107.5
2023-05-06T18:00:00.819Z,105.0
2023-05-06T18:05:00.994Z,106.9
2023-05-06T18:10:00.856Z,106.5
2023-05-06T18:15:00.889Z,112.2
2023-05-06T18:20:05.839Z,117.7
2023-05-06T18:25:00.884Z,123.4
2023-05-06T18:30:00.913Z,129.2
2023-05-06T18:35:05.966Z,128.0
2023-05-06T18:40:00.816Z,126.0
2023-05-06T18:45:00.952Z,119.0
2023-05-06T18:50:00.851Z,110.7
2023-05-06T18:55:00.889Z,107.1
2023-05-06T19:00:00.852Z,102.3
2023-05-06T19:05:00.884Z,105.7
2023-05-06T19:10:00.926Z,107.4
2023-05-06T19:15:01.026Z,113.0
2023-05-06T19:20:00.951Z,113.7
2023-05-06T19:25:00.932Z,124.2
2023-05-06T19:30:01.074Z,129.8
2023-05-06T19:35:01.313Z,131.4
2023-05-06T19:40:00.825Z,125.0
2023-05-06T19:45:00.962Z,113.9
2023-05-06T19:50:00.944Z,109.7
2023-05-06T19:55:00.917Z,97.9
2023-05-06T20:00:00.822Z,93.3
2023-05-06T20:05:00.925Z,99.2
2023-05-06T20:10:00.955Z,108.5
2023-05-06T20:15:00.980Z,110.8
2023-05-06T20:20:02.645Z,121.8
2023-05-06T20:25:01.385Z,124.8
2023-05-06T20:30:00.964Z,120.6
2023-05-06T20:35:00.919Z,119.6
2023-05-06T20:40:00.856Z,119.2
2023-05-06T20:45:07.070Z,111.8
2023-05-06T20:50:00.867Z,109.5
2023-05-06T20:55:01.062Z,109.2
2023-05-06T21:00:00.855Z,106.2
2023-05-06T21:05:00.953Z,106.0
2023-05-06T21:10:01.181Z,111.6
2023-05-06T21:15:00.904Z,109.8
2023-05-06T21:20:00.867Z,111.0
2023-05-06T21:25:01.152Z,112.2
2023-05-06T21:30:00.816Z,107.6
2023-05-06T21:35:00.932Z,101.4
2023-05-06T21:40:01.244Z,105.0
2023-05-06T21:45:01.092Z,104.3
2023-05-06T21:50:00.833Z,106.8
2023-05-06T21:55:00.888Z,106.3
2023-05-06T22:00:00.827Z,111.5
2023-05-06T22:05:01.060Z,110.5
2023-05-06T22:10:00.826Z,115.0
2023-05-06T22:15:00.958Z,114.2
2023-05-06T22:20:00.854Z,122.4
2023-05-06T22:25:01.028Z,118.8
2023-05-06T22:30:00.853Z,124.8
2023-05-06T22:35:00.984Z,128.4
2023-05-06T22:40:00.850Z,134.3
2023-05-06T22:45:01.503Z,132.0
2023-05-06T22:50:00.831Z,139.0
2023-05-06T22:55:00.910Z,129.9
2023-05-06T23:00:00.818Z,121.0
2023-05-06T23:05:00.928Z,111.6
2023-05-06T23:10:00.824Z,104.7
2023-05-06T23:15:00.947Z,92.3
2023-05-06T23:20:00.823Z,92.0
2023-05-06T23:25:00.976Z,92.4
2023-05-06T23:30:00.819Z,92.4
2023-05-06T23:35:00.896Z,102.7
2023-05-06T23:40:00.844Z,111.6
2023-05-06T23:45:01.063Z,123.8
2023-05-06T23:50:00.855Z,133.1
2023-05-06T23:55:01.319Z,139.1
